Time,TemperatureF,DewpointF,PressureIn,WindDirection,WindDirectionDegrees,WindSpeedMPH,WindSpeedGustMPH,Humidity,HourlyPrecipIn,Conditions,Clouds,dailyrainin,SoftwareType,DateUTC
2013-02-19 00:00:00,45.7,41.1,29.47,SSW,202,7.4,11.6,84,0.00,,,0.00,WUHU21623XXSP,2013-02-19 05:00:00,
2013-02-19 00:01:00,45.7,41.1,29.47,SW,225,2.7,14.5,84,0.00,,,0.00,WUHU21623XXSP,2013-02-19 05:01:00,
2013-02-19 00:11:00,45.8,41.2,29.46,SW,225,9.2,9.6,84,0.00,,,0.00,WUHU21623XXSP,2013-02-19 05:11:00,
2013-02-19 00:22:00,45.8,41.3,29.49,WSW,247,13.6,13.6,84,0.00,,,0.00,WUHU21623XXSP,2013-02-19 05:22:00,
2013-02-19 00:27:00,45.2,40.0,29.49,SW,225,4.5,18.8,82,0.00,,,0.00,WUHU21623XXSP,2013-02-19 05:27:00,
2013-02-19 00:35:00,42.9,37.5,29.50,WSW,247,8.7,12.1,81,0.00,,,0.00,WUHU21623XXSP,2013-02-19 05:35:00,
2013-02-19 00:46:00,40.8,35.7,29.51,SW,225,6.3,12.5,82,0.00,,,0.00,WUHU21623XXSP,2013-02-19 05:46:00,
2013-02-19 00:51:00,39.9,34.9,29.52,West,270,5.4,16.6,82,0.00,,,0.00,WUHU21623XXSP,2013-02-19 05:51:00,
2013-02-19 00:58:00,38.9,33.8,29.53,SSW,202,10.7,16.6,82,0.00,,,0.00,WUHU21623XXSP,2013-02-19 05:58:00,
2013-02-19 01:09:00,37.3,32.3,29.54,West,270,4.3,13.0,82,0.00,,,0.00,WUHU21623XXSP,2013-02-19 06:09:00,
2013-02-19 01:14:00,37.1,32.4,29.54,West,270,2.7,13.0,83,0.00,,,0.00,WUHU21623XXSP,2013-02-19 06:14:00,
2013-02-19 01:21:00,36.9,32.2,29.54,WNW,292,4.5,14.1,83,0.00,,,0.00,WUHU21623XXSP,2013-02-19 06:21:00,
2013-02-19 01:26:00,36.5,31.8,29.54,WSW,247,0.0,14.1,83,0.00,,,0.00,WUHU21623XXSP,2013-02-19 06:26:00,
2013-02-19 01:32:00,36.6,32.2,29.54,West,270,12.1,12.1,84,0.00,,,0.00,WUHU21623XXSP,2013-02-19 06:32:00,
2013-02-19 01:37:00,36.6,32.2,29.54,West,270,4.0,12.1,84,0.00,,,0.00,WUHU21623XXSP,2013-02-19 06:37:00,
2013-02-19 01:43:00,36.6,32.2,29.55,WSW,247,3.4,12.1,84,0.00,,,0.00,WUHU21623XXSP,2013-02-19 06:43:00,
2013-02-19 01:48:00,36.4,32.0,29.55,WSW,247,2.9,12.8,84,0.00,,,0.00,WUHU21623XXSP,2013-02-19 06:48:00,
2013-02-19 01:55:00,36.2,31.5,29.56,WSW,247,11.4,13.2,83,0.00,,,0.00,WUHU21623XXSP,2013-02-19 06:55:00,
2013-02-19 02:07:00,35.6,31.0,29.56,SW,225,8.7,21.0,83,0.00,,,0.00,WUHU21623XXSP,2013-02-19 07:07:00,
2013-02-19 02:12:00,35.6,31.0,29.57,SW,225,7.8,16.6,83,0.00,,,0.00,WUHU21623XXSP,2013-02-19 07:12:00,
2013-02-19 02:19:00,35.0,30.0,29.57,West,270,12.1,16.6,82,0.00,,,0.00,WUHU21623XXSP,2013-02-19 07:19:00,
2013-02-19 02:30:00,34.5,29.6,29.58,SW,225,4.7,17.4,82,0.00,,,0.00,WUHU21623XXSP,2013-02-19 07:30:00,
2013-02-19 02:35:00,34.3,29.4,29.58,WSW,247,10.3,17.4,82,0.00,,,0.00,WUHU21623XXSP,2013-02-19 07:35:00,
2013-02-19 02:41:00,34.1,29.2,29.58,West,270,7.4,15.9,82,0.00,,,0.00,WUHU21623XXSP,2013-02-19 07:41:00,
2013-02-19 02:53:00,33.8,28.9,29.59,WSW,247,11.0,20.8,82,0.00,,,0.00,WUHU21623XXSP,2013-02-19 07:53:00,
2013-02-19 03:05:00,33.7,28.8,29.59,WSW,247,3.1,16.8,82,0.00,,,0.00,WUHU21623XXSP,2013-02-19 08:05:00,
2013-02-19 03:09:00,33.3,28.4,29.60,WSW,247,3.8,17.7,82,0.00,,,0.00,WUHU21623XXSP,2013-02-19 08:09:00,
2013-02-19 03:18:00,33.0,27.8,29.61,WSW,247,5.8,15.4,81,0.00,,,0.00,WUHU21623XXSP,2013-02-19 08:18:00,
2013-02-19 03:30:00,32.2,27.0,29.61,WSW,247,7.2,18.8,81,0.00,,,0.00,WUHU21623XXSP,2013-02-19 08:30:00,
2013-02-19 03:41:00,31.5,26.3,29.62,WSW,247,6.5,17.4,81,0.00,,,0.00,WUHU21623XXSP,2013-02-19 08:41:00,
2013-02-19 03:46:00,31.3,25.9,29.62,WSW,247,5.8,17.4,80,0.00,,,0.00,WUHU21623XXSP,2013-02-19 08:46:00,
2013-02-19 03:53:00,31.2,25.8,29.63,WSW,247,6.5,13.6,80,0.00,,,0.00,WUHU21623XXSP,2013-02-19 08:53:00,
2013-02-19 04:04:00,30.6,25.2,29.63,WSW,247,6.3,17.2,80,0.00,,,0.00,WUHU21623XXSP,2013-02-19 09:04:00,
2013-02-19 04:09:00,30.4,25.0,29.64,WSW,247,7.2,17.9,80,0.00,,,0.00,WUHU21623XXSP,2013-02-19 09:09:00,
2013-02-19 04:18:00,30.1,24.7,29.64,WSW,247,10.5,14.1,80,0.00,,,0.00,WUHU21623XXSP,2013-02-19 09:18:00,
2013-02-19 04:23:00,29.7,24.3,29.65,WSW,247,2.2,15.2,80,0.00,,,0.00,WUHU21623XXSP,2013-02-19 09:23:00,
2013-02-19 04:30:00,29.5,24.1,29.65,WSW,247,0.0,15.2,80,0.00,,,0.00,WUHU21623XXSP,2013-02-19 09:30:00,
2013-02-19 04:35:00,29.1,23.8,29.65,WSW,247,5.6,16.3,80,0.00,,,0.00,WUHU21623XXSP,2013-02-19 09:35:00,
2013-02-19 04:41:00,29.1,23.4,29.65,WSW,247,8.7,16.3,79,0.00,,,0.00,WUHU21623XXSP,2013-02-19 09:41:00,
2013-02-19 04:46:00,28.7,23.0,29.65,WSW,247,8.9,14.3,79,0.00,,,0.00,WUHU21623XXSP,2013-02-19 09:46:00,
2013-02-19 04:52:00,28.5,22.8,29.66,WSW,247,10.5,14.3,79,0.00,,,0.00,WUHU21623XXSP,2013-02-19 09:52:00,
2013-02-19 04:57:00,28.4,22.7,29.66,WSW,247,0.0,13.0,79,0.00,,,0.00,WUHU21623XXSP,2013-02-19 09:57:00,
2013-02-19 05:06:00,28.0,22.3,29.66,WSW,247,3.4,17.9,79,0.00,,,0.00,WUHU21623XXSP,2013-02-19 10:06:00,
2013-02-19 05:11:00,27.7,22.1,29.66,WSW,247,0.9,17.9,79,0.00,,,0.00,WUHU21623XXSP,2013-02-19 10:11:00,
2013-02-19 05:19:00,27.4,21.5,29.66,WSW,247,7.3,19.7,78,0.00,,,0.00,WUHU21623XXSP,2013-02-19 10:19:00,
2013-02-19 05:30:00,27.0,21.0,29.67,WSW,247,0.0,17.9,78,0.00,,,0.00,WUHU21623XXSP,2013-02-19 10:30:00,
2013-02-19 05:41:00,26.4,20.5,29.67,WSW,247,3.1,15.9,78,0.00,,,0.00,WUHU21623XXSP,2013-02-19 10:41:00,
2013-02-19 05:46:00,26.0,19.8,29.67,WSW,247,9.6,16.1,77,0.00,,,0.00,WUHU21623XXSP,2013-02-19 10:46:00,
2013-02-19 05:53:00,26.2,20.3,29.67,WSW,247,8.7,16.1,78,0.00,,,0.00,WUHU21623XXSP,2013-02-19 10:53:00,
2013-02-19 05:58:00,26.1,20.2,29.68,WSW,247,0.0,19.2,78,0.00,,,0.00,WUHU21623XXSP,2013-02-19 10:58:00,
2013-02-19 06:05:00,25.7,19.5,29.68,WSW,247,14.8,19.2,77,0.00,,,0.00,WUHU21623XXSP,2013-02-19 11:05:00,
2013-02-19 06:10:00,25.5,19.3,29.69,WSW,247,4.5,14.8,77,0.00,,,0.00,WUHU21623XXSP,2013-02-19 11:10:00,
2013-02-19 06:20:00,25.1,18.6,29.69,WSW,247,6.3,18.3,76,0.00,,,0.00,WUHU21623XXSP,2013-02-19 11:20:00,
2013-02-19 06:31:00,24.7,18.2,29.69,WSW,247,7.7,17.4,76,0.00,,,0.00,WUHU21623XXSP,2013-02-19 11:31:00,
2013-02-19 06:42:00,24.3,18.1,29.69,WSW,247,3.6,16.8,77,0.00,,,0.00,WUHU21623XXSP,2013-02-19 11:42:00,
2013-02-19 06:54:00,24.0,17.9,29.70,WSW,247,0.0,18.3,77,0.00,,,0.00,WUHU21623XXSP,2013-02-19 11:54:00,
2013-02-19 06:58:00,23.8,17.3,29.70,WSW,247,2.9,13.2,76,0.00,,,0.00,WUHU21623XXSP,2013-02-19 11:58:00,
2013-02-19 07:05:00,23.5,17.1,29.70,WSW,247,1.1,15.7,76,0.00,,,0.00,WUHU21623XXSP,2013-02-19 12:05:00,
2013-02-19 07:16:00,23.3,16.5,29.70,WSW,247,7.2,18.1,75,0.00,,,0.00,WUHU21623XXSP,2013-02-19 12:16:00,
2013-02-19 07:21:00,22.9,16.2,29.71,WSW,247,8.7,16.3,75,0.00,,,0.00,WUHU21623XXSP,2013-02-19 12:21:00,
2013-02-19 07:27:00,22.7,16.0,29.71,WSW,247,4.3,16.3,75,0.00,,,0.00,WUHU21623XXSP,2013-02-19 12:27:00,
2013-02-19 07:39:00,22.2,15.8,29.71,WSW,247,9.2,17.9,76,0.00,,,0.00,WUHU21623XXSP,2013-02-19 12:39:00,
2013-02-19 07:50:00,21.8,16.0,29.72,WSW,247,7.4,16.6,78,0.00,,,0.00,WUHU21623XXSP,2013-02-19 12:50:00,
2013-02-19 07:55:00,21.8,16.0,29.72,WSW,247,1.6,16.3,78,0.00,,,0.00,WUHU21623XXSP,2013-02-19 12:55:00,
2013-02-19 08:02:00,21.3,15.8,29.73,WSW,247,9.8,15.7,79,0.00,,,0.00,WUHU21623XXSP,2013-02-19 13:02:00,
2013-02-19 08:13:00,20.7,15.3,29.74,WSW,247,0.0,13.9,79,0.00,,,0.00,WUHU21623XXSP,2013-02-19 13:13:00,
2013-02-19 08:18:00,20.7,15.2,29.74,WSW,247,7.8,15.4,79,0.00,,,0.00,WUHU21623XXSP,2013-02-19 13:18:00,
2013-02-19 08:24:00,20.5,15.0,29.74,WSW,247,5.6,18.6,79,0.00,,,0.00,WUHU21623XXSP,2013-02-19 13:24:00,
2013-02-19 08:29:00,20.2,14.7,29.74,WSW,247,5.1,18.6,79,0.00,,,0.00,WUHU21623XXSP,2013-02-19 13:29:00,
2013-02-19 08:35:00,20.0,14.5,29.75,WSW,247,1.3,16.3,79,0.00,,,0.00,WUHU21623XXSP,2013-02-19 13:35:00,
2013-02-19 08:47:00,19.8,13.9,29.76,WSW,247,5.1,23.0,78,0.00,,,0.00,WUHU21623XXSP,2013-02-19 13:47:00,
2013-02-19 08:58:00,19.6,13.4,29.76,WSW,247,0.0,17.9,77,0.00,,,0.00,WUHU21623XXSP,2013-02-19 13:58:00,
2013-02-19 09:09:00,19.6,13.4,29.77,WSW,247,8.9,15.9,77,0.00,,,0.00,WUHU21623XXSP,2013-02-19 14:09:00,
2013-02-19 09:21:00,19.2,13.4,29.77,WSW,247,0.0,18.8,78,0.00,,,0.00,WUHU21623XXSP,2013-02-19 14:21:00,
2013-02-19 09:32:00,19.0,13.2,29.78,WSW,247,0.0,18.6,78,0.00,,,0.00,WUHU21623XXSP,2013-02-19 14:32:00,
2013-02-19 09:37:00,19.0,13.5,29.78,WSW,247,13.9,15.9,79,0.00,,,0.00,WUHU21623XXSP,2013-02-19 14:37:00,
2013-02-19 09:43:00,18.9,13.3,29.78,WSW,247,3.4,15.7,79,0.00,,,0.00,WUHU21623XXSP,2013-02-19 14:43:00,
2013-02-19 09:55:00,18.5,13.3,29.79,WSW,247,1.1,16.6,80,0.00,,,0.00,WUHU21623XXSP,2013-02-19 14:55:00,
2013-02-19 10:06:00,18.3,13.1,29.79,WSW,247,1.8,13.6,80,0.00,,,0.00,WUHU21623XXSP,2013-02-19 15:06:00,
2013-02-19 10:11:00,18.3,13.4,29.80,WSW,247,2.7,13.6,81,0.00,,,0.00,WUHU21623XXSP,2013-02-19 15:11:00,
2013-02-19 10:18:00,18.3,13.4,29.80,WSW,247,0.0,13.6,81,0.00,,,0.00,WUHU21623XXSP,2013-02-19 15:18:00,
2013-02-19 10:30:00,18.3,13.4,29.80,WSW,247,8.3,15.2,81,0.00,,,0.00,WUHU21623XXSP,2013-02-19 15:30:00,
2013-02-19 10:35:00,18.3,13.4,29.80,WSW,247,0.0,15.2,81,0.00,,,0.00,WUHU21623XXSP,2013-02-19 15:35:00,
2013-02-19 10:42:00,18.3,13.4,29.80,WSW,247,8.9,14.1,81,0.00,,,0.00,WUHU21623XXSP,2013-02-19 15:42:00,
2013-02-19 10:46:00,18.3,13.5,29.81,WSW,247,0.0,14.5,81,0.00,,,0.00,WUHU21623XXSP,2013-02-19 15:46:00,
2013-02-19 10:53:00,18.5,13.9,29.81,WSW,247,1.6,15.9,82,0.00,,,0.00,WUHU21623XXSP,2013-02-19 15:53:00,
2013-02-19 11:04:00,18.4,13.7,29.82,WSW,247,0.0,20.4,82,0.00,,,0.00,WUHU21623XXSP,2013-02-19 16:04:00,
2013-02-19 11:15:00,18.4,13.7,29.82,WSW,247,0.0,17.9,82,0.00,,,0.00,WUHU21623XXSP,2013-02-19 16:15:00,
2013-02-19 11:26:00,18.4,13.8,29.83,WSW,247,5.6,12.8,82,0.00,,,0.00,WUHU21623XXSP,2013-02-19 16:26:00,
2013-02-19 11:31:00,18.4,13.8,29.83,WSW,247,4.3,14.1,82,0.00,,,0.00,WUHU21623XXSP,2013-02-19 16:31:00,
2013-02-19 11:38:00,18.1,13.4,29.83,WSW,247,3.8,15.4,81,0.00,,,0.00,WUHU21623XXSP,2013-02-19 16:38:00,
2013-02-19 11:43:00,18.1,13.6,29.83,WSW,247,0.0,15.4,82,0.00,,,0.00,WUHU21623XXSP,2013-02-19 16:43:00,
2013-02-19 11:49:00,17.9,13.5,29.83,WSW,247,2.2,12.3,83,0.00,,,0.00,WUHU21623XXSP,2013-02-19 16:49:00,
2013-02-19 11:54:00,17.9,13.2,29.84,WSW,247,7.2,21.5,82,0.00,,,0.00,WUHU21623XXSP,2013-02-19 16:54:00,
2013-02-19 12:01:00,17.9,13.2,29.84,WSW,247,9.2,21.5,82,0.00,,,0.00,WUHU21623XXSP,2013-02-19 17:01:00,
2013-02-19 12:06:00,17.9,13.3,29.84,WSW,247,3.6,13.0,82,0.00,,,0.00,WUHU21623XXSP,2013-02-19 17:06:00,
2013-02-19 12:13:00,17.9,13.3,29.84,WSW,247,2.9,14.1,82,0.00,,,0.00,WUHU21623XXSP,2013-02-19 17:13:00,
2013-02-19 12:18:00,17.8,13.6,29.85,WSW,247,0.0,15.2,83,0.00,,,0.00,WUHU21623XXSP,2013-02-19 17:18:00,
2013-02-19 12:24:00,17.8,13.6,29.85,WSW,247,0.0,15.2,83,0.00,,,0.00,WUHU21623XXSP,2013-02-19 17:24:00,
2013-02-19 12:29:00,18.0,13.8,29.85,WSW,247,0.0,13.6,83,0.00,,,0.00,WUHU21623XXSP,2013-02-19 17:29:00,
2013-02-19 12:36:00,17.8,13.6,29.85,WSW,247,2.0,10.5,83,0.00,,,0.00,WUHU21623XXSP,2013-02-19 17:36:00,
2013-02-19 12:47:00,17.5,13.3,29.85,WSW,247,3.4,18.6,84,0.00,,,0.00,WUHU21623XXSP,2013-02-19 17:47:00,
2013-02-19 12:58:00,17.6,13.6,29.86,WSW,247,0.0,13.2,84,0.00,,,0.00,WUHU21623XXSP,2013-02-19 17:58:00,
2013-02-19 13:03:00,17.6,13.6,29.86,WSW,247,2.9,12.1,84,0.00,,,0.00,WUHU21623XXSP,2013-02-19 18:03:00,
2013-02-19 13:10:00,17.4,13.4,29.86,WSW,247,6.6,17.9,84,0.00,,,0.00,WUHU21623XXSP,2013-02-19 18:10:00,
2013-02-19 13:15:00,17.4,13.4,29.86,WSW,247,3.1,17.9,84,0.00,,,0.00,WUHU21623XXSP,2013-02-19 18:15:00,
2013-02-19 13:21:00,17.4,13.4,29.86,WSW,247,2.5,16.6,84,0.00,,,0.00,WUHU21623XXSP,2013-02-19 18:21:00,
2013-02-19 13:26:00,17.4,13.2,29.87,WSW,247,3.6,18.1,83,0.00,,,0.00,WUHU21623XXSP,2013-02-19 18:26:00,
2013-02-19 13:32:00,17.0,12.8,29.87,WSW,247,0.0,18.1,83,0.00,,,0.00,WUHU21623XXSP,2013-02-19 18:32:00,
2013-02-19 13:37:00,17.4,13.2,29.87,WSW,247,4.0,17.2,83,0.00,,,0.00,WUHU21623XXSP,2013-02-19 18:37:00,
2013-02-19 13:44:00,17.4,13.2,29.87,WSW,247,0.0,16.6,84,0.00,,,0.00,WUHU21623XXSP,2013-02-19 18:44:00,
2013-02-19 13:55:00,17.4,13.2,29.88,WSW,247,5.8,11.6,84,0.00,,,0.00,WUHU21623XXSP,2013-02-19 18:55:00,
2013-02-19 14:06:00,16.9,12.8,29.88,WSW,247,4.3,16.6,84,0.00,,,0.00,WUHU21623XXSP,2013-02-19 19:06:00,
2013-02-19 14:11:00,16.9,12.6,29.88,WSW,247,1.3,21.5,83,0.00,,,0.00,WUHU21623XXSP,2013-02-19 19:11:00,
2013-02-19 14:17:00,16.9,12.6,29.88,WSW,247,0.0,13.0,83,0.00,,,0.00,WUHU21623XXSP,2013-02-19 19:17:00,
2013-02-19 14:22:00,16.9,12.9,29.88,WSW,247,7.8,8.7,84,0.00,,,0.00,WUHU21623XXSP,2013-02-19 19:22:00,
2013-02-19 14:29:00,16.9,12.6,29.89,WSW,247,0.0,12.8,83,0.00,,,0.00,WUHU21623XXSP,2013-02-19 19:29:00,
2013-02-19 14:34:00,16.7,12.4,29.89,WSW,247,10.3,11.2,83,0.00,,,0.00,WUHU21623XXSP,2013-02-19 19:34:00,
2013-02-19 14:40:00,16.7,12.4,29.89,WSW,247,0.0,13.0,83,0.00,,,0.00,WUHU21623XXSP,2013-02-19 19:40:00,
2013-02-19 14:51:00,16.9,12.6,29.90,WSW,247,0.0,20.6,83,0.00,,,0.00,WUHU21623XXSP,2013-02-19 19:51:00,
2013-02-19 14:56:00,16.7,12.4,29.90,WSW,247,9.4,20.6,83,0.00,,,0.00,WUHU21623XXSP,2013-02-19 19:56:00,
2013-02-19 15:02:00,16.9,12.6,29.91,WSW,247,3.4,14.5,83,0.00,,,0.00,WUHU21623XXSP,2013-02-19 20:02:00,
2013-02-19 15:14:00,16.9,12.6,29.91,WSW,247,8.7,15.4,83,0.00,,,0.00,WUHU21623XXSP,2013-02-19 20:14:00,
2013-02-19 15:26:00,16.9,12.6,29.92,WSW,247,5.1,10.3,83,0.00,,,0.00,WUHU21623XXSP,2013-02-19 20:26:00,
2013-02-19 15:37:00,17.1,12.8,29.92,WSW,247,3.8,12.5,83,0.00,,,0.00,WUHU21623XXSP,2013-02-19 20:37:00,
2013-02-19 15:42:00,17.1,12.8,29.92,WSW,247,0.0,14.1,83,0.00,,,0.00,WUHU21623XXSP,2013-02-19 20:42:00,
2013-02-19 15:48:00,16.9,12.3,29.93,WSW,247,2.2,14.8,82,0.00,,,0.00,WUHU21623XXSP,2013-02-19 20:48:00,
2013-02-19 16:00:00,16.9,12.3,29.93,WSW,247,0.0,10.5,82,0.00,,,0.00,WUHU21623XXSP,2013-02-19 21:00:00,
2013-02-19 16:05:00,16.9,12.3,29.94,WSW,247,0.0,10.1,82,0.00,,,0.00,WUHU21623XXSP,2013-02-19 21:05:00,
2013-02-19 16:11:00,16.9,12.3,29.94,WSW,247,0.0,20.8,82,0.00,,,0.00,WUHU21623XXSP,2013-02-19 21:11:00,
2013-02-19 16:16:00,16.7,12.1,29.94,WSW,247,4.7,20.8,82,0.00,,,0.00,WUHU21623XXSP,2013-02-19 21:16:00,
2013-02-19 16:22:00,16.7,11.8,29.95,WSW,247,0.0,15.9,81,0.00,,,0.00,WUHU21623XXSP,2013-02-19 21:22:00,
2013-02-19 16:27:00,16.9,12.3,29.95,WSW,247,0.0,15.9,82,0.00,,,0.00,WUHU21623XXSP,2013-02-19 21:27:00,
2013-02-19 16:33:00,16.8,12.1,29.95,WSW,247,6.0,12.3,82,0.00,,,0.00,WUHU21623XXSP,2013-02-19 21:33:00,
2013-02-19 16:46:00,16.8,12.1,29.96,WSW,247,0.0,14.1,81,0.00,,,0.00,WUHU21623XXSP,2013-02-19 21:46:00,
2013-02-19 16:51:00,16.8,12.1,29.96,WSW,247,2.7,15.4,81,0.00,,,0.00,WUHU21623XXSP,2013-02-19 21:51:00,
2013-02-19 16:57:00,16.8,12.0,29.97,WSW,247,3.6,15.4,81,0.00,,,0.00,WUHU21623XXSP,2013-02-19 21:57:00,
2013-02-19 17:08:00,16.8,11.7,29.98,WSW,247,1.1,13.9,80,0.00,,,0.00,WUHU21623XXSP,2013-02-19 22:08:00,
2013-02-19 17:13:00,16.8,11.7,29.98,WSW,247,0.0,13.9,80,0.00,,,0.00,WUHU21623XXSP,2013-02-19 22:13:00,
2013-02-19 17:20:00,16.8,11.7,29.98,WSW,247,0.0,10.5,80,0.00,,,0.00,WUHU21623XXSP,2013-02-19 22:20:00,
2013-02-19 17:32:00,16.9,11.7,29.99,WSW,247,6.3,17.4,80,0.00,,,0.00,WUHU21623XXSP,2013-02-19 22:32:00,
2013-02-19 17:37:00,16.8,11.6,29.99,WSW,247,3.1,15.0,80,0.00,,,0.00,WUHU21623XXSP,2013-02-19 22:37:00,
2013-02-19 17:43:00,16.6,11.4,30.00,WSW,247,0.0,15.0,80,0.00,,,0.00,WUHU21623XXSP,2013-02-19 22:43:00,
2013-02-19 17:54:00,16.6,11.3,30.00,WSW,247,3.4,11.0,79,0.00,,,0.00,WUHU21623XXSP,2013-02-19 22:54:00,
2013-02-19 18:05:00,16.6,11.0,30.01,WSW,247,0.0,9.2,78,0.00,,,0.00,WUHU21623XXSP,2013-02-19 23:05:00,
2013-02-19 18:17:00,16.7,11.0,30.01,WSW,247,2.2,18.8,78,0.00,,,0.00,WUHU21623XXSP,2013-02-19 23:17:00,
2013-02-19 18:29:00,16.7,11.2,30.02,WSW,247,0.0,14.1,79,0.00,,,0.00,WUHU21623XXSP,2013-02-19 23:29:00,
2013-02-19 18:40:00,16.7,11.2,30.02,WSW,247,3.6,20.6,78,0.00,,,0.00,WUHU21623XXSP,2013-02-19 23:40:00,
2013-02-19 18:52:00,16.8,10.6,30.03,WSW,247,1.1,13.4,76,0.00,,,0.00,WUHU21623XXSP,2013-02-19 23:52:00,
2013-02-19 19:04:00,16.8,10.5,30.03,WSW,247,2.9,8.5,76,0.00,,,0.00,WUHU21623XXSP,2013-02-20 00:04:00,
2013-02-19 19:09:00,17.0,11.0,30.03,WSW,247,0.0,8.5,77,0.00,,,0.00,WUHU21623XXSP,2013-02-20 00:09:00,
2013-02-19 19:16:00,17.0,10.7,30.03,WSW,247,0.0,6.7,76,0.00,,,0.00,WUHU21623XXSP,2013-02-20 00:16:00,
2013-02-19 19:28:00,17.1,10.3,30.04,WSW,247,2.2,9.8,74,0.00,,,0.00,WUHU21623XXSP,2013-02-20 00:28:00,
2013-02-19 19:33:00,17.1,10.3,30.04,WSW,247,0.0,11.4,74,0.00,,,0.00,WUHU21623XXSP,2013-02-20 00:33:00,
2013-02-19 19:40:00,17.1,10.3,30.05,WSW,247,4.9,10.5,74,0.00,,,0.00,WUHU21623XXSP,2013-02-20 00:40:00,
2013-02-19 19:45:00,16.9,9.9,30.05,WSW,247,0.0,10.5,74,0.00,,,0.00,WUHU21623XXSP,2013-02-20 00:45:00,
2013-02-19 19:51:00,16.9,9.9,30.05,WSW,247,0.0,16.1,74,0.00,,,0.00,WUHU21623XXSP,2013-02-20 00:51:00,
2013-02-19 19:56:00,17.1,10.1,30.05,WSW,247,2.0,16.1,74,0.00,,,0.00,WUHU21623XXSP,2013-02-20 00:56:00,
2013-02-19 20:02:00,17.2,10.3,30.05,WSW,247,0.0,8.9,74,0.00,,,0.00,WUHU21623XXSP,2013-02-20 01:02:00,
2013-02-19 20:14:00,17.2,10.3,30.06,WSW,247,0.0,12.5,74,0.00,,,0.00,WUHU21623XXSP,2013-02-20 01:14:00,
2013-02-19 20:19:00,17.2,10.3,30.05,WSW,247,0.0,12.3,74,0.00,,,0.00,WUHU21623XXSP,2013-02-20 01:19:00,
2013-02-19 20:25:00,17.2,10.3,30.06,WSW,247,0.0,7.4,74,0.00,,,0.00,WUHU21623XXSP,2013-02-20 01:25:00,
2013-02-19 20:30:00,17.2,10.3,30.06,WSW,247,5.1,6.0,74,0.00,,,0.00,WUHU21623XXSP,2013-02-20 01:30:00,
2013-02-19 20:36:00,17.4,10.8,30.06,WSW,247,4.3,11.0,75,0.00,,,0.00,WUHU21623XXSP,2013-02-20 01:36:00,
2013-02-19 20:47:00,17.4,10.8,30.06,WSW,247,3.8,5.8,75,0.00,,,0.00,WUHU21623XXSP,2013-02-20 01:47:00,
2013-02-19 20:52:00,17.6,10.9,30.06,WSW,247,0.0,10.1,75,0.00,,,0.00,WUHU21623XXSP,2013-02-20 01:52:00,
2013-02-19 20:59:00,17.6,11.2,30.06,WSW,247,0.0,12.8,76,0.00,,,0.00,WUHU21623XXSP,2013-02-20 01:59:00,
2013-02-19 21:10:00,17.8,11.1,30.07,WSW,247,0.0,6.5,75,0.00,,,0.00,WUHU21623XXSP,2013-02-20 02:10:00,
2013-02-19 21:15:00,17.8,11.4,30.07,WSW,247,0.0,6.5,76,0.00,,,0.00,WUHU21623XXSP,2013-02-20 02:15:00,
2013-02-19 21:21:00,17.8,11.4,30.07,WSW,247,8.9,8.9,76,0.00,,,0.00,WUHU21623XXSP,2013-02-20 02:21:00,
2013-02-19 21:33:00,17.8,12.0,30.08,WSW,247,0.0,9.2,78,0.00,,,0.00,WUHU21623XXSP,2013-02-20 02:33:00,
2013-02-19 21:45:00,17.8,12.3,30.08,WSW,247,0.0,4.9,79,0.00,,,0.00,WUHU21623XXSP,2013-02-20 02:45:00,
2013-02-19 21:50:00,17.8,12.0,30.08,WSW,247,0.0,4.9,78,0.00,,,0.00,WUHU21623XXSP,2013-02-20 02:50:00,
2013-02-19 21:57:00,18.0,11.9,30.08,WSW,247,0.0,2.5,77,0.00,,,0.00,WUHU21623XXSP,2013-02-20 02:57:00,
2013-02-19 22:02:00,18.0,11.6,30.08,WSW,247,0.0,6.5,76,0.00,,,0.00,WUHU21623XXSP,2013-02-20 03:02:00,
2013-02-19 22:08:00,18.1,11.4,30.08,WSW,247,0.0,6.5,75,0.00,,,0.00,WUHU21623XXSP,2013-02-20 03:08:00,
2013-02-19 22:20:00,18.1,11.4,30.09,WSW,247,0.0,4.0,75,0.00,,,0.00,WUHU21623XXSP,2013-02-20 03:20:00,
2013-02-19 22:32:00,18.0,10.7,30.10,WSW,247,2.0,5.8,73,0.00,,,0.00,WUHU21623XXSP,2013-02-20 03:32:00,
2013-02-19 22:44:00,18.0,10.9,30.10,WSW,247,0.0,7.6,73,0.00,,,0.00,WUHU21623XXSP,2013-02-20 03:44:00,
2013-02-19 22:57:00,18.1,10.9,30.10,WSW,247,0.0,4.9,73,0.00,,,0.00,WUHU21623XXSP,2013-02-20 03:57:00,
2013-02-19 23:02:00,17.9,10.8,30.10,WSW,247,0.0,4.3,73,0.00,,,0.00,WUHU21623XXSP,2013-02-20 04:02:00,
2013-02-19 23:09:00,18.0,10.8,30.10,WSW,247,0.0,5.1,73,0.00,,,0.00,WUHU21623XXSP,2013-02-20 04:09:00,
2013-02-19 23:14:00,18.0,10.9,30.10,WSW,247,0.0,5.1,73,0.00,,,0.00,WUHU21623XXSP,2013-02-20 04:14:00,
2013-02-19 23:20:00,18.1,10.9,30.10,WSW,247,0.0,3.4,73,0.00,,,0.00,WUHU21623XXSP,2013-02-20 04:20:00,
2013-02-19 23:25:00,18.1,11.0,30.10,WSW,247,0.0,4.0,73,0.00,,,0.00,WUHU21623XXSP,2013-02-20 04:25:00,
2013-02-19 23:32:00,18.2,10.7,30.10,WSW,247,0.0,4.0,72,0.00,,,0.00,WUHU21623XXSP,2013-02-20 04:32:00,
2013-02-19 23:45:00,18.1,10.9,30.11,WSW,247,2.5,6.0,73,0.00,,,0.00,WUHU21623XXSP,2013-02-20 04:45:00,
2013-02-19 23:56:00,18.0,10.8,30.11,WSW,247,2.0,4.7,73,0.00,,,0.00,WUHU21623XXSP,2013-02-20 04:56:00,